sensor_id;sensor_type;location;lat;lon;timestamp;P1;durP1;ratioP1;P2;durP2;ratioP2
12120;SDS011;6124;59.460;17.908;2023-12-22T00:00:12;2.10;;;0.60;;
12120;SDS011;6124;59.460;17.908;2023-12-22T00:02:39;1.53;;;0.60;;
12120;SDS011;6124;59.460;17.908;2023-12-22T00:05:07;0.53;;;0.50;;
12120;SDS011;6124;59.460;17.908;2023-12-22T00:07:34;2.27;;;0.60;;
12120;SDS011;6124;59.460;17.908;2023-12-22T00:10:02;0.60;;;0.50;;
12120;SDS011;6124;59.460;17.908;2023-12-22T00:12:28;1.03;;;0.63;;
12120;SDS011;6124;59.460;17.908;2023-12-22T00:14:57;0.77;;;0.63;;
12120;SDS011;6124;59.460;17.908;2023-12-22T00:17:24;0.90;;;0.70;;
12120;SDS011;6124;59.460;17.908;2023-12-22T00:19:52;3.50;;;1.20;;
12120;SDS011;6124;59.460;17.908;2023-12-22T00:22:21;1.17;;;0.70;;
12120;SDS011;6124;59.460;17.908;2023-12-22T00:24:49;1.63;;;0.60;;
12120;SDS011;6124;59.460;17.908;2023-12-22T00:27:17;0.90;;;0.70;;
12120;SDS011;6124;59.460;17.908;2023-12-22T00:29:45;1.27;;;0.70;;
12120;SDS011;6124;59.460;17.908;2023-12-22T00:32:13;1.33;;;0.70;;
12120;SDS011;6124;59.460;17.908;2023-12-22T00:34:41;2.50;;;0.83;;
12120;SDS011;6124;59.460;17.908;2023-12-22T00:37:08;0.70;;;0.60;;
12120;SDS011;6124;59.460;17.908;2023-12-22T00:39:37;0.77;;;0.50;;
12120;SDS011;6124;59.460;17.908;2023-12-22T00:42:04;2.10;;;0.60;;
12120;SDS011;6124;59.460;17.908;2023-12-22T00:44:32;0.80;;;0.60;;
12120;SDS011;6124;59.460;17.908;2023-12-22T00:46:58;1.03;;;0.70;;
12120;SDS011;6124;59.460;17.908;2023-12-22T00:49:27;2.70;;;0.90;;
12120;SDS011;6124;59.460;17.908;2023-12-22T00:51:54;1.67;;;0.70;;
12120;SDS011;6124;59.460;17.908;2023-12-22T00:54:22;0.90;;;0.63;;
12120;SDS011;6124;59.460;17.908;2023-12-22T00:56:50;1.30;;;0.53;;
12120;SDS011;6124;59.460;17.908;2023-12-22T00:59:17;0.93;;;0.53;;
12120;SDS011;6124;59.460;17.908;2023-12-22T01:01:45;1.43;;;0.80;;
12120;SDS011;6124;59.460;17.908;2023-12-22T01:04:12;2.63;;;0.80;;
12120;SDS011;6124;59.460;17.908;2023-12-22T01:06:41;1.43;;;0.73;;
12120;SDS011;6124;59.460;17.908;2023-12-22T01:09:08;1.47;;;0.50;;
12120;SDS011;6124;59.460;17.908;2023-12-22T01:11:36;0.50;;;0.43;;
12120;SDS011;6124;59.460;17.908;2023-12-22T01:14:04;1.37;;;0.70;;
12120;SDS011;6124;59.460;17.908;2023-12-22T01:16:32;1.60;;;0.90;;
12120;SDS011;6124;59.460;17.908;2023-12-22T01:18:59;1.30;;;0.60;;
12120;SDS011;6124;59.460;17.908;2023-12-22T01:21:27;1.50;;;0.90;;
12120;SDS011;6124;59.460;17.908;2023-12-22T01:23:55;1.67;;;0.70;;
12120;SDS011;6124;59.460;17.908;2023-12-22T01:26:24;0.70;;;0.50;;
12120;SDS011;6124;59.460;17.908;2023-12-22T01:28:51;2.13;;;0.97;;
12120;SDS011;6124;59.460;17.908;2023-12-22T01:31:19;2.20;;;0.70;;
12120;SDS011;6124;59.460;17.908;2023-12-22T01:33:46;1.03;;;0.70;;
12120;SDS011;6124;59.460;17.908;2023-12-22T01:36:13;1.00;;;0.70;;
12120;SDS011;6124;59.460;17.908;2023-12-22T01:38:41;0.73;;;0.50;;
12120;SDS011;6124;59.460;17.908;2023-12-22T01:41:10;1.20;;;0.80;;
12120;SDS011;6124;59.460;17.908;2023-12-22T01:43:37;1.43;;;0.60;;
12120;SDS011;6124;59.460;17.908;2023-12-22T01:46:04;1.53;;;0.80;;
12120;SDS011;6124;59.460;17.908;2023-12-22T01:48:33;2.00;;;0.73;;
12120;SDS011;6124;59.460;17.908;2023-12-22T01:51:02;2.10;;;0.90;;
12120;SDS011;6124;59.460;17.908;2023-12-22T01:53:29;0.70;;;0.60;;
12120;SDS011;6124;59.460;17.908;2023-12-22T01:55:58;1.23;;;0.60;;
12120;SDS011;6124;59.460;17.908;2023-12-22T01:58:27;1.17;;;0.80;;
12120;SDS011;6124;59.460;17.908;2023-12-22T02:00:55;1.03;;;0.50;;
12120;SDS011;6124;59.460;17.908;2023-12-22T02:03:23;1.00;;;0.60;;
12120;SDS011;6124;59.460;17.908;2023-12-22T02:05:51;1.57;;;0.73;;
12120;SDS011;6124;59.460;17.908;2023-12-22T02:08:18;1.23;;;0.70;;
12120;SDS011;6124;59.460;17.908;2023-12-22T02:10:46;1.83;;;0.70;;
12120;SDS011;6124;59.460;17.908;2023-12-22T02:13:14;1.30;;;0.50;;
12120;SDS011;6124;59.460;17.908;2023-12-22T02:15:43;1.67;;;0.50;;
12120;SDS011;6124;59.460;17.908;2023-12-22T02:18:12;1.03;;;0.57;;
12120;SDS011;6124;59.460;17.908;2023-12-22T02:20:40;1.37;;;0.67;;
12120;SDS011;6124;59.460;17.908;2023-12-22T02:23:10;0.50;;;0.50;;
12120;SDS011;6124;59.460;17.908;2023-12-22T02:25:38;1.30;;;0.50;;
12120;SDS011;6124;59.460;17.908;2023-12-22T02:28:07;1.10;;;0.70;;
12120;SDS011;6124;59.460;17.908;2023-12-22T02:30:37;1.93;;;0.80;;
12120;SDS011;6124;59.460;17.908;2023-12-22T02:33:06;0.80;;;0.70;;
12120;SDS011;6124;59.460;17.908;2023-12-22T02:35:36;1.97;;;0.60;;
12120;SDS011;6124;59.460;17.908;2023-12-22T02:38:06;1.63;;;0.60;;
12120;SDS011;6124;59.460;17.908;2023-12-22T02:40:36;1.10;;;0.70;;
12120;SDS011;6124;59.460;17.908;2023-12-22T02:43:04;1.30;;;0.67;;
12120;SDS011;6124;59.460;17.908;2023-12-22T02:45:32;1.50;;;0.50;;
12120;SDS011;6124;59.460;17.908;2023-12-22T02:47:59;1.40;;;0.60;;
12120;SDS011;6124;59.460;17.908;2023-12-22T02:50:27;1.30;;;0.77;;
12120;SDS011;6124;59.460;17.908;2023-12-22T02:52:54;1.87;;;0.80;;
12120;SDS011;6124;59.460;17.908;2023-12-22T02:55:22;2.50;;;0.63;;
12120;SDS011;6124;59.460;17.908;2023-12-22T02:57:50;0.67;;;0.50;;
12120;SDS011;6124;59.460;17.908;2023-12-22T03:00:18;1.00;;;0.57;;
12120;SDS011;6124;59.460;17.908;2023-12-22T03:02:45;1.10;;;0.60;;
12120;SDS011;6124;59.460;17.908;2023-12-22T03:05:13;0.80;;;0.60;;
12120;SDS011;6124;59.460;17.908;2023-12-22T03:07:40;1.17;;;0.57;;
12120;SDS011;6124;59.460;17.908;2023-12-22T03:10:08;1.23;;;0.60;;
12120;SDS011;6124;59.460;17.908;2023-12-22T03:12:35;1.63;;;0.63;;
12120;SDS011;6124;59.460;17.908;2023-12-22T03:15:05;1.47;;;0.60;;
12120;SDS011;6124;59.460;17.908;2023-12-22T03:17:32;0.70;;;0.50;;
12120;SDS011;6124;59.460;17.908;2023-12-22T03:20:00;0.70;;;0.60;;
12120;SDS011;6124;59.460;17.908;2023-12-22T03:22:27;1.20;;;0.63;;
12120;SDS011;6124;59.460;17.908;2023-12-22T03:24:54;0.90;;;0.60;;
12120;SDS011;6124;59.460;17.908;2023-12-22T03:27:22;0.77;;;0.70;;
12120;SDS011;6124;59.460;17.908;2023-12-22T03:29:49;0.93;;;0.60;;
12120;SDS011;6124;59.460;17.908;2023-12-22T03:32:18;0.93;;;0.70;;
12120;SDS011;6124;59.460;17.908;2023-12-22T03:34:45;1.67;;;0.70;;
12120;SDS011;6124;59.460;17.908;2023-12-22T03:37:13;1.53;;;0.90;;
12120;SDS011;6124;59.460;17.908;2023-12-22T03:39:40;1.30;;;0.80;;
12120;SDS011;6124;59.460;17.908;2023-12-22T03:42:08;1.10;;;0.80;;
12120;SDS011;6124;59.460;17.908;2023-12-22T03:44:35;2.57;;;0.80;;
12120;SDS011;6124;59.460;17.908;2023-12-22T03:47:03;0.87;;;0.73;;
12120;SDS011;6124;59.460;17.908;2023-12-22T03:49:31;1.30;;;0.90;;
12120;SDS011;6124;59.460;17.908;2023-12-22T03:51:59;1.30;;;1.03;;
12120;SDS011;6124;59.460;17.908;2023-12-22T03:54:26;2.97;;;1.10;;
12120;SDS011;6124;59.460;17.908;2023-12-22T03:56:53;1.60;;;0.90;;
12120;SDS011;6124;59.460;17.908;2023-12-22T03:59:21;1.13;;;1.00;;
12120;SDS011;6124;59.460;17.908;2023-12-22T04:01:51;1.47;;;0.90;;
12120;SDS011;6124;59.460;17.908;2023-12-22T04:04:20;2.97;;;1.20;;
12120;SDS011;6124;59.460;17.908;2023-12-22T04:06:49;2.03;;;1.00;;
12120;SDS011;6124;59.460;17.908;2023-12-22T04:09:17;2.23;;;1.50;;
12120;SDS011;6124;59.460;17.908;2023-12-22T04:11:44;1.67;;;1.03;;
12120;SDS011;6124;59.460;17.908;2023-12-22T04:14:12;2.33;;;1.07;;
12120;SDS011;6124;59.460;17.908;2023-12-22T04:16:40;1.53;;;1.17;;
12120;SDS011;6124;59.460;17.908;2023-12-22T04:19:07;1.90;;;1.20;;
12120;SDS011;6124;59.460;17.908;2023-12-22T04:21:35;2.83;;;1.47;;
12120;SDS011;6124;59.460;17.908;2023-12-22T04:24:04;2.73;;;1.40;;
12120;SDS011;6124;59.460;17.908;2023-12-22T04:26:32;3.43;;;1.20;;
12120;SDS011;6124;59.460;17.908;2023-12-22T04:28:59;2.50;;;1.30;;
12120;SDS011;6124;59.460;17.908;2023-12-22T04:31:27;1.47;;;1.10;;
12120;SDS011;6124;59.460;17.908;2023-12-22T04:33:54;2.60;;;1.50;;
12120;SDS011;6124;59.460;17.908;2023-12-22T04:36:22;3.57;;;1.60;;
12120;SDS011;6124;59.460;17.908;2023-12-22T04:38:49;3.73;;;1.60;;
12120;SDS011;6124;59.460;17.908;2023-12-22T04:41:18;2.90;;;1.63;;
12120;SDS011;6124;59.460;17.908;2023-12-22T04:43:45;2.60;;;1.60;;
12120;SDS011;6124;59.460;17.908;2023-12-22T04:46:12;3.53;;;2.03;;
12120;SDS011;6124;59.460;17.908;2023-12-22T04:48:40;2.33;;;1.63;;
12120;SDS011;6124;59.460;17.908;2023-12-22T04:51:07;2.13;;;1.60;;
12120;SDS011;6124;59.460;17.908;2023-12-22T04:53:34;4.30;;;1.90;;
12120;SDS011;6124;59.460;17.908;2023-12-22T04:56:03;4.07;;;1.77;;
12120;SDS011;6124;59.460;17.908;2023-12-22T04:58:32;5.13;;;2.00;;
12120;SDS011;6124;59.460;17.908;2023-12-22T05:00:59;3.27;;;1.77;;
12120;SDS011;6124;59.460;17.908;2023-12-22T05:03:27;2.50;;;1.80;;
12120;SDS011;6124;59.460;17.908;2023-12-22T05:05:54;4.30;;;2.03;;
12120;SDS011;6124;59.460;17.908;2023-12-22T05:08:22;4.00;;;1.80;;
12120;SDS011;6124;59.460;17.908;2023-12-22T05:10:49;5.50;;;2.33;;
12120;SDS011;6124;59.460;17.908;2023-12-22T05:13:16;4.37;;;2.27;;
12120;SDS011;6124;59.460;17.908;2023-12-22T05:15:45;4.77;;;1.80;;
12120;SDS011;6124;59.460;17.908;2023-12-22T05:18:13;4.00;;;1.97;;
12120;SDS011;6124;59.460;17.908;2023-12-22T05:20:40;5.93;;;2.00;;
12120;SDS011;6124;59.460;17.908;2023-12-22T05:23:08;4.30;;;2.00;;
12120;SDS011;6124;59.460;17.908;2023-12-22T05:25:36;5.17;;;2.07;;
12120;SDS011;6124;59.460;17.908;2023-12-22T05:28:03;3.30;;;1.90;;
12120;SDS011;6124;59.460;17.908;2023-12-22T05:30:31;5.20;;;2.47;;
12120;SDS011;6124;59.460;17.908;2023-12-22T05:32:59;4.10;;;1.93;;
12120;SDS011;6124;59.460;17.908;2023-12-22T05:35:27;6.20;;;2.57;;
12120;SDS011;6124;59.460;17.908;2023-12-22T05:37:54;4.83;;;2.13;;
12120;SDS011;6124;59.460;17.908;2023-12-22T05:40:22;3.37;;;1.73;;
12120;SDS011;6124;59.460;17.908;2023-12-22T05:42:49;6.47;;;2.53;;
12120;SDS011;6124;59.460;17.908;2023-12-22T05:45:16;6.37;;;2.57;;
12120;SDS011;6124;59.460;17.908;2023-12-22T05:47:44;5.70;;;2.50;;
12120;SDS011;6124;59.460;17.908;2023-12-22T05:50:13;6.47;;;2.20;;
12120;SDS011;6124;59.460;17.908;2023-12-22T05:52:41;4.97;;;2.20;;
12120;SDS011;6124;59.460;17.908;2023-12-22T05:55:10;6.43;;;2.20;;
12120;SDS011;6124;59.460;17.908;2023-12-22T05:57:37;6.70;;;2.10;;
12120;SDS011;6124;59.460;17.908;2023-12-22T06:00:05;6.47;;;2.40;;
12120;SDS011;6124;59.460;17.908;2023-12-22T06:02:35;3.33;;;1.77;;
12120;SDS011;6124;59.460;17.908;2023-12-22T06:05:02;4.77;;;2.17;;
12120;SDS011;6124;59.460;17.908;2023-12-22T06:07:31;4.93;;;1.90;;
12120;SDS011;6124;59.460;17.908;2023-12-22T06:09:58;3.37;;;1.80;;
12120;SDS011;6124;59.460;17.908;2023-12-22T06:12:26;4.23;;;1.80;;
12120;SDS011;6124;59.460;17.908;2023-12-22T06:14:53;5.30;;;1.73;;
12120;SDS011;6124;59.460;17.908;2023-12-22T06:17:21;4.33;;;2.07;;
12120;SDS011;6124;59.460;17.908;2023-12-22T06:19:48;4.77;;;1.97;;
12120;SDS011;6124;59.460;17.908;2023-12-22T06:22:15;5.03;;;1.77;;
12120;SDS011;6124;59.460;17.908;2023-12-22T06:24:44;3.77;;;2.13;;
12120;SDS011;6124;59.460;17.908;2023-12-22T06:27:12;4.33;;;1.90;;
12120;SDS011;6124;59.460;17.908;2023-12-22T06:29:39;4.80;;;1.80;;
12120;SDS011;6124;59.460;17.908;2023-12-22T06:32:06;5.37;;;1.90;;
12120;SDS011;6124;59.460;17.908;2023-12-22T06:34:34;4.70;;;2.40;;
12120;SDS011;6124;59.460;17.908;2023-12-22T06:37:01;5.73;;;1.90;;
12120;SDS011;6124;59.460;17.908;2023-12-22T06:39:29;4.10;;;2.17;;
12120;SDS011;6124;59.460;17.908;2023-12-22T06:41:58;2.87;;;1.80;;
12120;SDS011;6124;59.460;17.908;2023-12-22T06:44:25;3.37;;;1.93;;
12120;SDS011;6124;59.460;17.908;2023-12-22T06:46:52;3.30;;;2.00;;
12120;SDS011;6124;59.460;17.908;2023-12-22T06:49:20;3.33;;;1.60;;
12120;SDS011;6124;59.460;17.908;2023-12-22T06:51:47;3.83;;;2.00;;
12120;SDS011;6124;59.460;17.908;2023-12-22T06:54:15;3.23;;;1.90;;
12120;SDS011;6124;59.460;17.908;2023-12-22T06:56:42;4.57;;;2.10;;
12120;SDS011;6124;59.460;17.908;2023-12-22T06:59:11;3.30;;;1.93;;
12120;SDS011;6124;59.460;17.908;2023-12-22T07:01:38;2.83;;;1.87;;
12120;SDS011;6124;59.460;17.908;2023-12-22T07:04:06;5.37;;;2.13;;
12120;SDS011;6124;59.460;17.908;2023-12-22T07:06:34;4.03;;;2.20;;
12120;SDS011;6124;59.460;17.908;2023-12-22T07:11:47;4.20;;;2.17;;
12120;SDS011;6124;59.460;17.908;2023-12-22T07:14:16;4.20;;;2.03;;
12120;SDS011;6124;59.460;17.908;2023-12-22T07:16:44;6.47;;;1.77;;
12120;SDS011;6124;59.460;17.908;2023-12-22T07:19:11;3.20;;;1.67;;
12120;SDS011;6124;59.460;17.908;2023-12-22T07:21:39;6.23;;;2.50;;
12120;SDS011;6124;59.460;17.908;2023-12-22T07:24:06;3.80;;;2.10;;
12120;SDS011;6124;59.460;17.908;2023-12-22T07:26:34;6.43;;;2.20;;
12120;SDS011;6124;59.460;17.908;2023-12-22T07:29:01;4.70;;;2.20;;
12120;SDS011;6124;59.460;17.908;2023-12-22T07:31:30;5.30;;;2.33;;
12120;SDS011;6124;59.460;17.908;2023-12-22T07:33:57;6.20;;;2.10;;
12120;SDS011;6124;59.460;17.908;2023-12-22T07:36:25;5.13;;;2.10;;
12120;SDS011;6124;59.460;17.908;2023-12-22T07:38:53;3.57;;;1.77;;
12120;SDS011;6124;59.460;17.908;2023-12-22T07:41:22;4.17;;;2.30;;
12120;SDS011;6124;59.460;17.908;2023-12-22T07:43:49;6.70;;;2.33;;
12120;SDS011;6124;59.460;17.908;2023-12-22T07:46:17;6.40;;;2.60;;
12120;SDS011;6124;59.460;17.908;2023-12-22T07:48:46;6.77;;;2.70;;
12120;SDS011;6124;59.460;17.908;2023-12-22T07:51:13;4.10;;;2.40;;
12120;SDS011;6124;59.460;17.908;2023-12-22T07:53:40;7.33;;;2.30;;
12120;SDS011;6124;59.460;17.908;2023-12-22T07:56:08;4.80;;;2.33;;
12120;SDS011;6124;59.460;17.908;2023-12-22T07:58:36;6.50;;;2.50;;
12120;SDS011;6124;59.460;17.908;2023-12-22T08:01:04;5.70;;;2.23;;
12120;SDS011;6124;59.460;17.908;2023-12-22T08:03:32;5.57;;;2.20;;
12120;SDS011;6124;59.460;17.908;2023-12-22T08:06:01;5.87;;;2.17;;
12120;SDS011;6124;59.460;17.908;2023-12-22T08:08:28;4.73;;;2.57;;
12120;SDS011;6124;59.460;17.908;2023-12-22T08:10:56;5.07;;;2.20;;
12120;SDS011;6124;59.460;17.908;2023-12-22T08:13:23;6.07;;;2.50;;
12120;SDS011;6124;59.460;17.908;2023-12-22T08:15:50;5.47;;;2.73;;
12120;SDS011;6124;59.460;17.908;2023-12-22T08:18:18;8.63;;;2.63;;
12120;SDS011;6124;59.460;17.908;2023-12-22T08:20:45;7.80;;;2.80;;
12120;SDS011;6124;59.460;17.908;2023-12-22T08:23:16;9.13;;;3.77;;
12120;SDS011;6124;59.460;17.908;2023-12-22T08:25:43;7.70;;;2.70;;
12120;SDS011;6124;59.460;17.908;2023-12-22T08:28:10;8.30;;;3.50;;
12120;SDS011;6124;59.460;17.908;2023-12-22T08:30:38;9.17;;;2.53;;
12120;SDS011;6124;59.460;17.908;2023-12-22T08:33:06;8.47;;;2.83;;
12120;SDS011;6124;59.460;17.908;2023-12-22T08:35:33;6.30;;;2.63;;
12120;SDS011;6124;59.460;17.908;2023-12-22T08:38:00;5.67;;;3.40;;
12120;SDS011;6124;59.460;17.908;2023-12-22T08:40:29;4.93;;;2.70;;
12120;SDS011;6124;59.460;17.908;2023-12-22T08:42:57;7.87;;;3.10;;
12120;SDS011;6124;59.460;17.908;2023-12-22T08:45:25;5.40;;;2.87;;
12120;SDS011;6124;59.460;17.908;2023-12-22T08:47:56;6.97;;;3.07;;
12120;SDS011;6124;59.460;17.908;2023-12-22T08:50:23;7.43;;;2.90;;
12120;SDS011;6124;59.460;17.908;2023-12-22T08:52:51;6.93;;;3.40;;
12120;SDS011;6124;59.460;17.908;2023-12-22T08:55:19;9.17;;;3.50;;
12120;SDS011;6124;59.460;17.908;2023-12-22T08:57:47;7.17;;;3.47;;
12120;SDS011;6124;59.460;17.908;2023-12-22T09:00:15;6.67;;;3.63;;
12120;SDS011;6124;59.460;17.908;2023-12-22T09:02:42;5.53;;;3.23;;
12120;SDS011;6124;59.460;17.908;2023-12-22T09:05:10;9.80;;;3.40;;
12120;SDS011;6124;59.460;17.908;2023-12-22T09:07:37;5.33;;;2.73;;
12120;SDS011;6124;59.460;17.908;2023-12-22T09:10:05;11.30;;;4.00;;
12120;SDS011;6124;59.460;17.908;2023-12-22T09:12:33;6.10;;;3.00;;
12120;SDS011;6124;59.460;17.908;2023-12-22T09:15:02;8.20;;;3.43;;
12120;SDS011;6124;59.460;17.908;2023-12-22T09:17:30;10.73;;;3.63;;
12120;SDS011;6124;59.460;17.908;2023-12-22T09:19:57;5.90;;;3.00;;
12120;SDS011;6124;59.460;17.908;2023-12-22T09:22:25;7.60;;;3.17;;
12120;SDS011;6124;59.460;17.908;2023-12-22T09:24:52;8.53;;;3.20;;
12120;SDS011;6124;59.460;17.908;2023-12-22T09:27:19;6.23;;;3.30;;
12120;SDS011;6124;59.460;17.908;2023-12-22T09:29:47;11.43;;;4.07;;
12120;SDS011;6124;59.460;17.908;2023-12-22T09:32:15;5.40;;;3.10;;
12120;SDS011;6124;59.460;17.908;2023-12-22T09:34:43;8.60;;;3.10;;
12120;SDS011;6124;59.460;17.908;2023-12-22T09:37:10;6.00;;;3.30;;
12120;SDS011;6124;59.460;17.908;2023-12-22T09:39:38;5.83;;;3.13;;
12120;SDS011;6124;59.460;17.908;2023-12-22T09:42:05;4.50;;;2.70;;
12120;SDS011;6124;59.460;17.908;2023-12-22T09:44:33;5.90;;;3.20;;
12120;SDS011;6124;59.460;17.908;2023-12-22T09:47:01;5.83;;;3.40;;
12120;SDS011;6124;59.460;17.908;2023-12-22T09:49:31;6.47;;;3.23;;
12120;SDS011;6124;59.460;17.908;2023-12-22T09:51:59;7.43;;;3.40;;
12120;SDS011;6124;59.460;17.908;2023-12-22T09:54:28;7.40;;;3.90;;
12120;SDS011;6124;59.460;17.908;2023-12-22T09:56:56;6.73;;;3.23;;
12120;SDS011;6124;59.460;17.908;2023-12-22T09:59:24;6.17;;;3.50;;
12120;SDS011;6124;59.460;17.908;2023-12-22T10:01:52;6.57;;;3.50;;
12120;SDS011;6124;59.460;17.908;2023-12-22T10:04:19;7.63;;;3.80;;
12120;SDS011;6124;59.460;17.908;2023-12-22T10:06:48;7.80;;;3.70;;
12120;SDS011;6124;59.460;17.908;2023-12-22T10:09:17;7.77;;;3.90;;
12120;SDS011;6124;59.460;17.908;2023-12-22T10:11:44;7.13;;;3.73;;
12120;SDS011;6124;59.460;17.908;2023-12-22T10:14:14;7.07;;;3.77;;
12120;SDS011;6124;59.460;17.908;2023-12-22T10:16:47;7.90;;;3.30;;
12120;SDS011;6124;59.460;17.908;2023-12-22T10:19:15;7.87;;;3.90;;
12120;SDS011;6124;59.460;17.908;2023-12-22T10:21:42;7.77;;;3.90;;
12120;SDS011;6124;59.460;17.908;2023-12-22T10:26:53;8.03;;;3.53;;
12120;SDS011;6124;59.460;17.908;2023-12-22T10:29:21;8.70;;;4.10;;
12120;SDS011;6124;59.460;17.908;2023-12-22T10:31:49;8.03;;;4.07;;
12120;SDS011;6124;59.460;17.908;2023-12-22T10:34:16;7.30;;;4.13;;
12120;SDS011;6124;59.460;17.908;2023-12-22T10:36:44;6.93;;;4.00;;
12120;SDS011;6124;59.460;17.908;2023-12-22T10:39:11;6.93;;;3.80;;
12120;SDS011;6124;59.460;17.908;2023-12-22T10:41:40;7.53;;;3.77;;
12120;SDS011;6124;59.460;17.908;2023-12-22T10:44:09;8.30;;;4.23;;
12120;SDS011;6124;59.460;17.908;2023-12-22T10:46:36;7.40;;;4.00;;
12120;SDS011;6124;59.460;17.908;2023-12-22T10:49:03;7.67;;;4.10;;
12120;SDS011;6124;59.460;17.908;2023-12-22T10:51:31;8.30;;;3.83;;
12120;SDS011;6124;59.460;17.908;2023-12-22T10:53:58;7.13;;;4.00;;
12120;SDS011;6124;59.460;17.908;2023-12-22T10:56:26;7.40;;;3.70;;
12120;SDS011;6124;59.460;17.908;2023-12-22T10:58:53;7.37;;;4.13;;
12120;SDS011;6124;59.460;17.908;2023-12-22T11:01:22;9.23;;;3.77;;
12120;SDS011;6124;59.460;17.908;2023-12-22T11:03:51;8.20;;;4.10;;
12120;SDS011;6124;59.460;17.908;2023-12-22T11:06:18;8.77;;;4.13;;
12120;SDS011;6124;59.460;17.908;2023-12-22T11:08:46;7.80;;;3.90;;
12120;SDS011;6124;59.460;17.908;2023-12-22T11:11:20;8.07;;;3.87;;
12120;SDS011;6124;59.460;17.908;2023-12-22T11:13:48;10.47;;;4.60;;
12120;SDS011;6124;59.460;17.908;2023-12-22T11:16:16;7.10;;;3.97;;
12120;SDS011;6124;59.460;17.908;2023-12-22T11:18:45;7.20;;;4.03;;
12120;SDS011;6124;59.460;17.908;2023-12-22T11:21:13;7.63;;;3.77;;
12120;SDS011;6124;59.460;17.908;2023-12-22T11:23:40;8.07;;;4.20;;
12120;SDS011;6124;59.460;17.908;2023-12-22T11:26:09;9.40;;;4.70;;
12120;SDS011;6124;59.460;17.908;2023-12-22T11:28:37;10.33;;;4.67;;
12120;SDS011;6124;59.460;17.908;2023-12-22T11:31:06;8.57;;;4.40;;
12120;SDS011;6124;59.460;17.908;2023-12-22T11:33:34;9.93;;;4.80;;
12120;SDS011;6124;59.460;17.908;2023-12-22T11:36:04;7.20;;;3.93;;
12120;SDS011;6124;59.460;17.908;2023-12-22T11:38:32;8.37;;;4.77;;
12120;SDS011;6124;59.460;17.908;2023-12-22T11:40:59;10.33;;;4.60;;
12120;SDS011;6124;59.460;17.908;2023-12-22T11:43:28;9.33;;;5.03;;
12120;SDS011;6124;59.460;17.908;2023-12-22T11:45:55;7.30;;;4.13;;
12120;SDS011;6124;59.460;17.908;2023-12-22T11:48:23;7.27;;;4.20;;
12120;SDS011;6124;59.460;17.908;2023-12-22T11:50:50;6.70;;;4.07;;
12120;SDS011;6124;59.460;17.908;2023-12-22T11:53:20;7.87;;;4.23;;
12120;SDS011;6124;59.460;17.908;2023-12-22T11:55:57;9.37;;;4.57;;
12120;SDS011;6124;59.460;17.908;2023-12-22T11:58:34;7.20;;;4.10;;
12120;SDS011;6124;59.460;17.908;2023-12-22T12:01:02;8.87;;;4.47;;
12120;SDS011;6124;59.460;17.908;2023-12-22T12:03:30;8.07;;;4.60;;
12120;SDS011;6124;59.460;17.908;2023-12-22T12:06:09;7.73;;;4.00;;
12120;SDS011;6124;59.460;17.908;2023-12-22T12:08:38;9.63;;;4.77;;
12120;SDS011;6124;59.460;17.908;2023-12-22T12:11:07;9.03;;;4.67;;
12120;SDS011;6124;59.460;17.908;2023-12-22T12:13:34;9.47;;;4.67;;
12120;SDS011;6124;59.460;17.908;2023-12-22T12:16:04;9.47;;;3.97;;
12120;SDS011;6124;59.460;17.908;2023-12-22T12:18:33;9.00;;;4.13;;
12120;SDS011;6124;59.460;17.908;2023-12-22T12:21:01;8.83;;;4.23;;
12120;SDS011;6124;59.460;17.908;2023-12-22T12:23:29;8.03;;;3.90;;
12120;SDS011;6124;59.460;17.908;2023-12-22T12:25:58;8.27;;;3.93;;
12120;SDS011;6124;59.460;17.908;2023-12-22T12:28:25;7.33;;;4.07;;
12120;SDS011;6124;59.460;17.908;2023-12-22T12:30:56;6.93;;;3.97;;
12120;SDS011;6124;59.460;17.908;2023-12-22T12:33:25;7.10;;;3.93;;
12120;SDS011;6124;59.460;17.908;2023-12-22T12:35:52;6.83;;;3.53;;
12120;SDS011;6124;59.460;17.908;2023-12-22T12:38:21;5.90;;;3.40;;
12120;SDS011;6124;59.460;17.908;2023-12-22T12:40:50;6.57;;;3.37;;
12120;SDS011;6124;59.460;17.908;2023-12-22T12:43:19;4.47;;;3.13;;
12120;SDS011;6124;59.460;17.908;2023-12-22T12:45:47;9.17;;;4.30;;
12120;SDS011;6124;59.460;17.908;2023-12-22T12:48:15;6.43;;;3.37;;
12120;SDS011;6124;59.460;17.908;2023-12-22T12:50:44;7.70;;;3.23;;
12120;SDS011;6124;59.460;17.908;2023-12-22T12:53:11;7.60;;;3.37;;
12120;SDS011;6124;59.460;17.908;2023-12-22T12:55:39;6.60;;;3.70;;
12120;SDS011;6124;59.460;17.908;2023-12-22T12:58:06;8.80;;;3.97;;
12120;SDS011;6124;59.460;17.908;2023-12-22T13:00:35;6.90;;;3.87;;
12120;SDS011;6124;59.460;17.908;2023-12-22T13:03:04;7.93;;;3.87;;
12120;SDS011;6124;59.460;17.908;2023-12-22T13:05:32;7.33;;;3.43;;
12120;SDS011;6124;59.460;17.908;2023-12-22T13:08:06;7.23;;;3.30;;
12120;SDS011;6124;59.460;17.908;2023-12-22T13:10:34;8.67;;;4.27;;
12120;SDS011;6124;59.460;17.908;2023-12-22T13:13:01;7.57;;;4.17;;
12120;SDS011;6124;59.460;17.908;2023-12-22T13:15:29;5.73;;;3.53;;
12120;SDS011;6124;59.460;17.908;2023-12-22T13:17:58;6.47;;;3.50;;
12120;SDS011;6124;59.460;17.908;2023-12-22T13:20:25;7.03;;;3.70;;
12120;SDS011;6124;59.460;17.908;2023-12-22T13:22:52;8.53;;;3.73;;
12120;SDS011;6124;59.460;17.908;2023-12-22T13:25:20;5.67;;;2.87;;
12120;SDS011;6124;59.460;17.908;2023-12-22T13:27:49;6.80;;;3.60;;
12120;SDS011;6124;59.460;17.908;2023-12-22T13:30:31;6.70;;;3.50;;
12120;SDS011;6124;59.460;17.908;2023-12-22T13:33:00;6.37;;;3.40;;
12120;SDS011;6124;59.460;17.908;2023-12-22T13:35:28;7.47;;;3.90;;
12120;SDS011;6124;59.460;17.908;2023-12-22T13:37:55;6.77;;;3.20;;
12120;SDS011;6124;59.460;17.908;2023-12-22T13:40:23;7.10;;;3.70;;
12120;SDS011;6124;59.460;17.908;2023-12-22T13:42:53;6.73;;;3.10;;
12120;SDS011;6124;59.460;17.908;2023-12-22T13:45:21;5.33;;;3.53;;
12120;SDS011;6124;59.460;17.908;2023-12-22T13:47:48;5.53;;;3.03;;
12120;SDS011;6124;59.460;17.908;2023-12-22T13:50:17;4.17;;;2.73;;
12120;SDS011;6124;59.460;17.908;2023-12-22T13:52:48;6.77;;;3.27;;
12120;SDS011;6124;59.460;17.908;2023-12-22T13:55:16;7.03;;;3.27;;
12120;SDS011;6124;59.460;17.908;2023-12-22T13:57:44;5.97;;;3.20;;
12120;SDS011;6124;59.460;17.908;2023-12-22T14:00:24;5.47;;;2.90;;
12120;SDS011;6124;59.460;17.908;2023-12-22T14:02:53;4.17;;;2.63;;
12120;SDS011;6124;59.460;17.908;2023-12-22T14:05:22;4.43;;;2.90;;
12120;SDS011;6124;59.460;17.908;2023-12-22T14:07:50;5.37;;;2.80;;
12120;SDS011;6124;59.460;17.908;2023-12-22T14:10:17;5.37;;;3.03;;
12120;SDS011;6124;59.460;17.908;2023-12-22T14:12:44;5.20;;;2.87;;
12120;SDS011;6124;59.460;17.908;2023-12-22T14:15:12;6.30;;;3.03;;
12120;SDS011;6124;59.460;17.908;2023-12-22T14:17:39;5.30;;;3.17;;
12120;SDS011;6124;59.460;17.908;2023-12-22T14:20:08;4.40;;;2.73;;
12120;SDS011;6124;59.460;17.908;2023-12-22T14:22:38;6.07;;;3.40;;
12120;SDS011;6124;59.460;17.908;2023-12-22T14:25:05;6.13;;;2.87;;
12120;SDS011;6124;59.460;17.908;2023-12-22T14:27:34;4.73;;;2.80;;
12120;SDS011;6124;59.460;17.908;2023-12-22T14:30:01;5.57;;;2.93;;
12120;SDS011;6124;59.460;17.908;2023-12-22T14:32:29;4.70;;;2.87;;
12120;SDS011;6124;59.460;17.908;2023-12-22T14:34:56;5.47;;;2.93;;
12120;SDS011;6124;59.460;17.908;2023-12-22T14:37:24;4.67;;;2.63;;
12120;SDS011;6124;59.460;17.908;2023-12-22T14:39:52;4.23;;;2.47;;
12120;SDS011;6124;59.460;17.908;2023-12-22T14:42:20;5.33;;;3.07;;
12120;SDS011;6124;59.460;17.908;2023-12-22T14:44:48;5.40;;;2.87;;
12120;SDS011;6124;59.460;17.908;2023-12-22T14:47:15;4.80;;;2.80;;
12120;SDS011;6124;59.460;17.908;2023-12-22T14:49:42;6.03;;;3.10;;
12120;SDS011;6124;59.460;17.908;2023-12-22T14:52:10;4.60;;;2.70;;
12120;SDS011;6124;59.460;17.908;2023-12-22T14:54:37;5.50;;;2.60;;
12120;SDS011;6124;59.460;17.908;2023-12-22T14:57:06;4.70;;;2.60;;